createdAt,value
2023-01-19T00:00:34.733Z,9.70
2023-01-19T00:03:03.055Z,10.13
2023-01-19T00:05:29.969Z,9.63
2023-01-19T00:07:56.793Z,9.63
2023-01-19T00:10:23.511Z,9.77
2023-01-19T00:12:50.101Z,9.40
2023-01-19T00:15:16.677Z,10.03
2023-01-19T00:17:43.336Z,9.43
2023-01-19T00:20:10.487Z,9.40
2023-01-19T00:22:37.064Z,10.00
2023-01-19T00:25:04.000Z,9.10
2023-01-19T00:27:34.950Z,10.83
2023-01-19T00:30:04.467Z,9.87
2023-01-19T00:32:31.164Z,9.73
2023-01-19T00:34:57.883Z,9.27
2023-01-19T00:37:24.597Z,9.77
2023-01-19T00:39:51.352Z,9.97
2023-01-19T00:42:36.516Z,9.57
2023-01-19T00:45:03.199Z,9.40
2023-01-19T00:47:29.844Z,9.80
2023-01-19T00:49:56.478Z,10.03
2023-01-19T00:52:23.112Z,10.20
2023-01-19T00:54:49.766Z,9.90
2023-01-19T00:57:17.081Z,10.00
2023-01-19T00:59:43.762Z,10.03
2023-01-19T01:02:11.466Z,9.67
2023-01-19T01:04:38.531Z,10.20
2023-01-19T01:07:05.147Z,9.50
2023-01-19T01:09:32.397Z,10.13
2023-01-19T01:11:59.232Z,9.87
2023-01-19T01:14:26.635Z,8.97
2023-01-19T01:16:53.436Z,9.03
2023-01-19T01:19:20.461Z,9.60
2023-01-19T01:21:47.182Z,9.50
2023-01-19T01:24:13.855Z,8.70
2023-01-19T01:26:40.557Z,9.60
2023-01-19T01:29:08.330Z,8.93
2023-01-19T01:31:35.163Z,9.50
2023-01-19T01:34:01.952Z,7.53
2023-01-19T01:36:32.010Z,9.33
2023-01-19T01:38:59.121Z,9.57
2023-01-19T01:41:27.352Z,9.20
2023-01-19T01:43:58.175Z,10.20
2023-01-19T01:46:26.155Z,9.40
2023-01-19T01:48:56.444Z,9.13
2023-01-19T01:51:34.860Z,9.43
2023-01-19T01:54:23.139Z,10.93
2023-01-19T01:56:55.785Z,10.47
2023-01-19T01:59:34.568Z,9.97
2023-01-19T02:02:25.235Z,9.67
2023-01-19T02:05:09.096Z,9.03
2023-01-19T02:08:20.460Z,9.83
2023-01-19T02:11:07.355Z,9.03
2023-01-19T02:13:38.003Z,9.47
2023-01-19T02:16:08.470Z,8.70
2023-01-19T02:18:35.648Z,8.47
2023-01-19T02:21:12.238Z,8.73
2023-01-19T02:23:45.367Z,9.17
2023-01-19T02:26:30.606Z,9.00
2023-01-19T02:29:02.074Z,9.10
2023-01-19T02:31:30.875Z,9.00
2023-01-19T02:33:58.023Z,8.30
2023-01-19T02:36:28.891Z,8.60
2023-01-19T02:38:59.318Z,8.50
2023-01-19T02:41:35.485Z,8.30
2023-01-19T02:44:02.910Z,9.10
2023-01-19T02:46:29.603Z,8.80
2023-01-19T02:49:00.324Z,8.57
2023-01-19T02:51:28.687Z,9.77
2023-01-19T02:54:16.423Z,9.07
2023-01-19T02:56:54.961Z,9.13
2023-01-19T02:59:52.681Z,9.10
2023-01-19T03:02:36.294Z,9.57
2023-01-19T03:05:15.875Z,8.93
2023-01-19T03:07:48.186Z,8.47
2023-01-19T03:10:26.593Z,8.77
2023-01-19T03:13:17.768Z,8.60
2023-01-19T03:15:52.814Z,8.90
2023-01-19T03:18:22.829Z,9.23
2023-01-19T03:20:53.326Z,8.13
2023-01-19T03:23:24.593Z,10.00
2023-01-19T03:25:54.386Z,9.77
2023-01-19T03:28:25.253Z,9.53
2023-01-19T03:31:04.962Z,9.57
2023-01-19T03:33:34.139Z,9.20
2023-01-19T03:36:08.042Z,9.00
2023-01-19T03:38:37.788Z,8.57
2023-01-19T03:41:09.809Z,9.13
2023-01-19T03:43:38.800Z,9.07
2023-01-19T03:46:06.727Z,9.03
2023-01-19T03:48:33.861Z,9.90
2023-01-19T03:51:06.679Z,8.87
2023-01-19T03:53:33.380Z,9.63
2023-01-19T03:56:00.405Z,8.87
2023-01-19T03:58:28.107Z,9.80
2023-01-19T04:00:54.764Z,9.40
2023-01-19T04:03:21.451Z,9.43
2023-01-19T04:05:48.133Z,10.03
2023-01-19T04:08:14.836Z,10.43
2023-01-19T04:10:41.474Z,9.83
2023-01-19T04:13:08.138Z,10.73
2023-01-19T04:15:34.814Z,9.60
2023-01-19T04:18:01.529Z,9.73
2023-01-19T04:20:28.762Z,10.30
2023-01-19T04:22:59.251Z,10.17
2023-01-19T04:25:26.599Z,9.80
2023-01-19T04:27:54.918Z,10.43
2023-01-19T04:30:22.461Z,10.23
2023-01-19T04:32:49.126Z,10.47
2023-01-19T04:35:16.960Z,11.37
2023-01-19T04:37:44.897Z,10.50
2023-01-19T04:40:11.945Z,11.43
2023-01-19T04:42:38.627Z,10.90
2023-01-19T04:45:05.777Z,10.90
2023-01-19T04:47:32.417Z,11.77
2023-01-19T04:49:59.085Z,11.87
2023-01-19T04:52:25.796Z,11.50
2023-01-19T04:54:52.759Z,10.70
2023-01-19T04:57:19.444Z,10.33
2023-01-19T04:59:46.086Z,10.47
2023-01-19T05:02:12.750Z,11.60
2023-01-19T05:04:39.373Z,11.43
2023-01-19T05:07:06.013Z,11.30
2023-01-19T05:09:32.624Z,11.00
2023-01-19T05:11:59.218Z,11.40
2023-01-19T05:14:25.811Z,12.03
2023-01-19T05:16:52.412Z,11.80
2023-01-19T05:19:19.072Z,12.10
2023-01-19T05:21:45.786Z,11.43
2023-01-19T05:24:12.581Z,11.60
2023-01-19T05:26:39.196Z,11.77
2023-01-19T05:29:05.989Z,11.50
2023-01-19T05:31:32.891Z,11.47
2023-01-19T05:33:59.556Z,12.30
2023-01-19T05:36:27.057Z,11.43
2023-01-19T05:38:53.808Z,11.63
2023-01-19T05:41:20.391Z,11.73
2023-01-19T05:43:47.016Z,11.50
2023-01-19T05:46:13.804Z,12.50
2023-01-19T05:48:40.413Z,13.00
2023-01-19T05:51:07.690Z,12.40
2023-01-19T05:53:34.293Z,12.93
2023-01-19T05:56:06.017Z,12.50
2023-01-19T05:58:34.268Z,11.80
2023-01-19T06:01:06.127Z,12.80
2023-01-19T06:03:34.153Z,12.50
2023-01-19T06:06:01.930Z,12.30
2023-01-19T06:08:28.975Z,13.07
2023-01-19T06:10:55.626Z,12.87
2023-01-19T06:13:22.319Z,12.53
2023-01-19T06:15:48.964Z,12.60
2023-01-19T06:18:15.560Z,12.63
2023-01-19T06:20:42.227Z,12.20
2023-01-19T06:23:10.425Z,11.90
2023-01-19T06:25:37.027Z,10.80
2023-01-19T06:28:03.993Z,10.93
2023-01-19T06:30:30.678Z,10.40
2023-01-19T06:32:57.269Z,10.63
2023-01-19T06:35:23.904Z,10.50
2023-01-19T06:37:50.942Z,10.80
2023-01-19T06:40:17.849Z,10.57
2023-01-19T06:42:44.434Z,10.97
2023-01-19T06:45:11.240Z,11.37
2023-01-19T06:47:37.901Z,11.03
2023-01-19T06:50:04.908Z,10.90
2023-01-19T06:52:31.712Z,10.33
2023-01-19T06:54:58.530Z,10.43
2023-01-19T06:57:25.874Z,10.50
2023-01-19T06:59:52.533Z,11.27
2023-01-19T07:02:27.531Z,10.87
2023-01-19T07:04:56.368Z,10.23
2023-01-19T07:07:23.006Z,12.00
2023-01-19T07:09:49.724Z,10.67
2023-01-19T07:12:20.618Z,10.87
2023-01-19T07:14:49.277Z,10.90
2023-01-19T07:17:15.908Z,10.63
2023-01-19T07:19:42.631Z,10.00
2023-01-19T07:22:09.271Z,10.70
2023-01-19T07:24:37.854Z,10.30
2023-01-19T07:27:05.318Z,11.20
2023-01-19T07:29:31.995Z,11.30
2023-01-19T07:31:58.706Z,11.10
2023-01-19T07:34:25.375Z,12.10
2023-01-19T07:36:51.983Z,13.07
2023-01-19T07:39:18.624Z,13.10
2023-01-19T07:41:45.383Z,13.07
2023-01-19T07:44:14.159Z,13.60
2023-01-19T07:46:41.128Z,13.00
2023-01-19T07:49:08.636Z,12.63
2023-01-19T07:51:36.162Z,13.73
2023-01-19T07:54:02.813Z,13.57
2023-01-19T07:56:32.766Z,14.17
2023-01-19T07:59:00.188Z,12.57
2023-01-19T08:01:26.935Z,14.60
2023-01-19T08:03:53.623Z,14.87
2023-01-19T08:06:22.788Z,14.93
2023-01-19T08:08:50.250Z,14.57
2023-01-19T08:11:17.163Z,13.63
2023-01-19T08:13:43.798Z,14.63
2023-01-19T08:16:10.582Z,13.80
2023-01-19T08:18:37.375Z,13.50
2023-01-19T08:21:04.455Z,12.70
2023-01-19T08:23:32.423Z,13.97
2023-01-19T08:25:59.163Z,12.67
2023-01-19T08:28:26.101Z,13.03
2023-01-19T08:30:55.892Z,13.07
2023-01-19T08:33:23.917Z,13.47
2023-01-19T08:35:52.544Z,13.63
2023-01-19T08:38:19.516Z,13.10
2023-01-19T08:40:46.341Z,11.73
2023-01-19T08:43:15.793Z,12.47
2023-01-19T08:45:48.037Z,12.23
2023-01-19T08:48:20.247Z,12.00
2023-01-19T08:50:47.663Z,11.93
2023-01-19T08:53:14.984Z,12.77
2023-01-19T08:55:42.025Z,12.43
2023-01-19T08:58:09.065Z,12.93
2023-01-19T09:00:40.886Z,13.03
2023-01-19T09:03:11.626Z,12.50
2023-01-19T09:05:38.924Z,13.27
2023-01-19T09:08:13.899Z,12.63
2023-01-19T09:10:46.434Z,13.63
2023-01-19T09:13:13.401Z,12.77
2023-01-19T09:15:41.033Z,12.80
2023-01-19T09:18:12.017Z,14.47
2023-01-19T09:20:39.301Z,13.70
2023-01-19T09:23:06.301Z,14.10
2023-01-19T09:25:32.978Z,13.23
2023-01-19T09:28:00.535Z,14.03
2023-01-19T09:30:27.762Z,13.60
2023-01-19T09:32:54.604Z,14.20
2023-01-19T09:35:21.548Z,13.77
2023-01-19T09:37:48.647Z,15.07
2023-01-19T09:40:17.001Z,14.10
2023-01-19T09:42:57.473Z,14.83
2023-01-19T09:45:53.591Z,14.47
2023-01-19T09:48:45.571Z,14.67
2023-01-19T09:51:40.943Z,14.17
2023-01-19T09:54:45.533Z,14.57
2023-01-19T09:57:12.675Z,14.50
2023-01-19T09:59:39.784Z,14.47
2023-01-19T10:02:28.293Z,13.27
2023-01-19T10:05:14.398Z,14.07
2023-01-19T10:08:11.987Z,13.70
2023-01-19T10:10:42.248Z,13.70
2023-01-19T10:13:21.643Z,13.40
2023-01-19T10:16:03.961Z,12.97
2023-01-19T10:18:51.570Z,13.43
2023-01-19T10:21:31.419Z,12.73
2023-01-19T10:24:20.932Z,13.73
2023-01-19T10:26:52.205Z,13.60
2023-01-19T10:29:24.272Z,12.40
2023-01-19T10:32:04.818Z,12.27
2023-01-19T10:34:31.499Z,12.20
2023-01-19T10:37:04.628Z,12.27
2023-01-19T10:39:31.605Z,12.60
2023-01-19T10:42:02.248Z,12.43
2023-01-19T10:44:36.021Z,12.17
2023-01-19T10:47:06.224Z,12.50
2023-01-19T10:49:44.554Z,11.40
2023-01-19T10:52:30.042Z,11.90
2023-01-19T10:54:57.394Z,10.33
2023-01-19T10:57:45.834Z,11.37
2023-01-19T11:00:33.160Z,10.90
2023-01-19T11:03:00.567Z,10.17
2023-01-19T11:05:32.773Z,10.27
2023-01-19T11:07:59.848Z,11.00
2023-01-19T11:10:30.362Z,11.20
2023-01-19T11:13:08.612Z,10.43
2023-01-19T11:15:44.492Z,11.03
2023-01-19T11:18:26.432Z,10.97
2023-01-19T11:20:55.521Z,11.30
2023-01-19T11:23:34.644Z,11.30
2023-01-19T11:26:05.021Z,10.77
2023-01-19T11:28:43.616Z,10.27
2023-01-19T11:31:11.635Z,11.87
2023-01-19T11:33:50.703Z,11.00
2023-01-19T11:36:22.798Z,12.40
2023-01-19T11:38:52.083Z,11.97
2023-01-19T11:41:22.318Z,11.80
2023-01-19T11:43:58.286Z,11.90
2023-01-19T11:46:33.010Z,12.17
2023-01-19T11:49:04.630Z,12.07
2023-01-19T11:51:39.553Z,11.80
2023-01-19T11:54:19.760Z,11.40
2023-01-19T11:56:48.347Z,11.63
2023-01-19T11:59:15.027Z,11.40
2023-01-19T12:01:50.824Z,10.30
2023-01-19T12:04:22.861Z,11.37
2023-01-19T12:06:55.800Z,10.77
2023-01-19T12:09:27.455Z,10.00
2023-01-19T12:12:11.637Z,10.40
2023-01-19T12:14:54.182Z,9.90
2023-01-19T12:17:54.637Z,11.27
2023-01-19T12:20:42.999Z,10.87
2023-01-19T12:23:24.404Z,11.07
2023-01-19T12:26:04.669Z,11.80
2023-01-19T12:28:34.908Z,11.00
2023-01-19T12:31:02.026Z,11.00
2023-01-19T12:33:33.274Z,11.17
2023-01-19T12:36:04.361Z,10.57
2023-01-19T12:38:41.580Z,10.87
2023-01-19T12:41:28.650Z,10.20
2023-01-19T12:44:16.537Z,10.43
2023-01-19T12:46:50.188Z,9.57
2023-01-19T12:49:49.701Z,9.77
2023-01-19T12:52:27.934Z,10.83
2023-01-19T12:55:15.656Z,9.40
2023-01-19T12:57:58.195Z,9.90
2023-01-19T13:00:24.769Z,10.60
2023-01-19T13:02:57.737Z,10.13
2023-01-19T13:05:32.622Z,10.27
2023-01-19T13:08:02.759Z,9.63
2023-01-19T13:11:01.860Z,9.93
2023-01-19T13:13:38.355Z,9.73
2023-01-19T13:16:20.737Z,10.23
2023-01-19T13:19:01.193Z,9.17
2023-01-19T13:21:32.796Z,9.53
2023-01-19T13:24:00.860Z,9.90
2023-01-19T13:26:55.075Z,10.00
2023-01-19T13:29:33.813Z,9.77
2023-01-19T13:32:04.907Z,8.77
2023-01-19T13:34:36.404Z,8.20
2023-01-19T13:37:04.594Z,8.73
2023-01-19T13:39:44.029Z,9.23
2023-01-19T13:42:29.177Z,9.40
2023-01-19T13:45:00.560Z,8.60
2023-01-19T13:47:37.406Z,8.47
2023-01-19T13:50:04.569Z,8.07
2023-01-19T13:52:31.391Z,8.57
2023-01-19T13:55:03.916Z,8.87
2023-01-19T13:57:32.174Z,8.87
2023-01-19T14:00:16.974Z,8.90
2023-01-19T14:02:59.125Z,8.13
2023-01-19T14:05:27.706Z,7.90
2023-01-19T14:08:12.751Z,8.80
2023-01-19T14:10:54.517Z,7.83
2023-01-19T14:13:29.516Z,7.57
2023-01-19T14:15:58.792Z,7.20
2023-01-19T14:18:30.504Z,7.53
2023-01-19T14:21:09.665Z,6.83
2023-01-19T14:23:48.431Z,7.30
2023-01-19T14:26:42.247Z,7.03
2023-01-19T14:29:31.768Z,7.83
2023-01-19T14:32:14.481Z,8.00
2023-01-19T14:35:10.844Z,7.03
2023-01-19T14:37:45.941Z,7.33
2023-01-19T14:40:13.032Z,7.73
2023-01-19T14:42:42.459Z,6.93
2023-01-19T14:45:22.612Z,7.20
2023-01-19T14:48:00.112Z,7.37
2023-01-19T14:50:36.589Z,6.97
2023-01-19T14:53:24.336Z,6.10
2023-01-19T14:55:58.768Z,4.17
2023-01-19T14:58:27.201Z,6.33
2023-01-19T15:00:56.722Z,6.50
2023-01-19T15:03:31.963Z,6.40
2023-01-19T15:06:20.558Z,6.73
2023-01-19T15:08:49.847Z,6.53
2023-01-19T15:11:34.971Z,7.17
2023-01-19T15:14:02.632Z,6.57
2023-01-19T15:16:31.550Z,6.20
2023-01-19T15:18:58.235Z,6.47
2023-01-19T15:21:26.512Z,7.03
2023-01-19T15:23:54.459Z,8.03
2023-01-19T15:26:23.586Z,5.90
2023-01-19T15:28:50.561Z,6.10
2023-01-19T15:31:19.918Z,7.30
2023-01-19T15:33:47.151Z,6.97
2023-01-19T15:36:18.623Z,6.40
2023-01-19T15:38:46.041Z,6.50
2023-01-19T15:41:25.906Z,6.93
2023-01-19T15:43:52.755Z,6.90
2023-01-19T15:46:23.360Z,6.50
2023-01-19T15:48:50.659Z,6.83
2023-01-19T15:51:20.408Z,7.40
2023-01-19T15:53:48.135Z,7.43
2023-01-19T15:56:24.443Z,8.37
2023-01-19T15:58:51.829Z,7.70
2023-01-19T16:01:21.986Z,6.27
2023-01-19T16:03:49.381Z,7.33
2023-01-19T16:06:17.728Z,6.80
2023-01-19T16:08:44.801Z,6.50
2023-01-19T16:11:13.891Z,6.23
2023-01-19T16:13:40.713Z,6.60
2023-01-19T16:16:19.065Z,6.67
2023-01-19T16:18:45.782Z,6.23
2023-01-19T16:21:12.526Z,6.77
2023-01-19T16:23:39.299Z,6.30
2023-01-19T16:26:08.376Z,6.10
2023-01-19T16:28:36.573Z,5.60
2023-01-19T16:31:03.966Z,6.90
2023-01-19T16:33:30.677Z,5.47
2023-01-19T16:35:57.341Z,6.03
2023-01-19T16:38:23.988Z,5.77
2023-01-19T16:40:50.618Z,5.73
2023-01-19T16:43:18.485Z,8.53
2023-01-19T16:46:02.712Z,6.50
2023-01-19T16:48:30.573Z,5.83
2023-01-19T16:51:15.630Z,6.07
2023-01-19T16:53:42.365Z,6.07
2023-01-19T16:56:11.959Z,5.80
2023-01-19T16:58:38.691Z,6.17
2023-01-19T17:01:14.824Z,5.73
2023-01-19T17:03:41.912Z,5.40
2023-01-19T17:06:13.627Z,4.80
2023-01-19T17:08:40.446Z,4.93
2023-01-19T17:11:28.308Z,5.07
2023-01-19T17:13:57.460Z,4.87
2023-01-19T17:16:24.904Z,5.40
2023-01-19T17:18:52.061Z,5.33
2023-01-19T17:21:20.821Z,5.23
2023-01-19T17:23:49.510Z,4.20
2023-01-19T17:26:17.116Z,4.10
2023-01-19T17:28:44.323Z,4.27
2023-01-19T17:31:17.205Z,4.30
2023-01-19T17:33:48.895Z,4.90
2023-01-19T17:36:22.103Z,4.60
2023-01-19T17:38:49.819Z,4.47
2023-01-19T17:41:19.218Z,4.60
2023-01-19T17:43:46.460Z,5.27
2023-01-19T17:46:13.540Z,4.23
2023-01-19T17:48:40.190Z,3.70
2023-01-19T17:51:09.163Z,3.63
2023-01-19T17:53:40.294Z,3.73
2023-01-19T17:56:12.587Z,7.73
2023-01-19T17:58:39.972Z,4.80
2023-01-19T18:01:12.480Z,4.33
2023-01-19T18:03:39.984Z,4.77
2023-01-19T18:06:06.910Z,3.97
2023-01-19T18:08:34.593Z,4.30
2023-01-19T18:11:02.090Z,8.17
2023-01-19T18:13:29.218Z,7.53
2023-01-19T18:16:05.113Z,4.40
2023-01-19T18:18:31.934Z,3.80
2023-01-19T18:21:04.619Z,3.40
2023-01-19T18:23:31.412Z,3.33
2023-01-19T18:26:03.667Z,5.30
2023-01-19T18:28:31.550Z,8.30
2023-01-19T18:30:58.362Z,10.57
2023-01-19T18:33:25.600Z,8.93
2023-01-19T18:35:52.521Z,10.77
2023-01-19T18:38:19.428Z,9.20
2023-01-19T18:40:46.691Z,4.30
2023-01-19T18:43:13.776Z,4.60
2023-01-19T18:45:41.931Z,4.30
2023-01-19T18:48:09.407Z,4.37
2023-01-19T18:50:37.458Z,3.97
2023-01-19T18:53:04.074Z,4.03
2023-01-19T18:55:30.816Z,3.97
2023-01-19T18:57:57.453Z,3.60
2023-01-19T19:00:24.123Z,3.50
2023-01-19T19:02:50.746Z,3.13
2023-01-19T19:05:17.444Z,4.17
2023-01-19T19:07:44.081Z,4.00
2023-01-19T19:10:11.333Z,4.10
2023-01-19T19:12:38.173Z,3.43
2023-01-19T19:15:05.196Z,4.33
2023-01-19T19:17:31.967Z,3.70
2023-01-19T19:19:58.548Z,3.60
2023-01-19T19:22:25.699Z,3.30
2023-01-19T19:24:52.393Z,3.17
2023-01-19T19:27:19.094Z,3.60
2023-01-19T19:29:48.064Z,3.63
2023-01-19T19:32:16.479Z,2.80
2023-01-19T19:34:43.141Z,2.90
2023-01-19T19:37:09.813Z,3.50
2023-01-19T19:39:38.188Z,3.43
2023-01-19T19:42:04.949Z,2.97
2023-01-19T19:44:31.587Z,3.23
2023-01-19T19:46:58.204Z,3.17
2023-01-19T19:49:29.077Z,3.40
2023-01-19T19:51:55.969Z,3.03
2023-01-19T19:54:22.598Z,2.70
2023-01-19T19:56:51.883Z,2.57
2023-01-19T19:59:18.492Z,2.90
2023-01-19T20:01:46.917Z,2.40
2023-01-19T20:04:14.018Z,2.33
2023-01-19T20:06:44.633Z,2.80
2023-01-19T20:09:14.836Z,2.60
2023-01-19T20:11:43.188Z,2.50
2023-01-19T20:14:11.930Z,2.67
2023-01-19T20:16:39.223Z,2.57
2023-01-19T20:19:06.151Z,2.37
2023-01-19T20:21:38.203Z,2.67
2023-01-19T20:24:07.975Z,2.43
2023-01-19T20:26:38.585Z,2.10
2023-01-19T20:29:10.573Z,2.70
2023-01-19T20:31:43.999Z,2.40
2023-01-19T20:34:13.177Z,2.40
2023-01-19T20:36:41.115Z,2.43
2023-01-19T20:39:11.268Z,2.50
2023-01-19T20:41:43.376Z,1.90
2023-01-19T20:44:15.945Z,3.00
2023-01-19T20:46:42.673Z,2.30
2023-01-19T20:49:10.138Z,2.57
2023-01-19T20:51:39.610Z,2.37
2023-01-19T20:54:06.338Z,2.10
2023-01-19T20:56:32.921Z,2.50
2023-01-19T20:58:59.852Z,2.73
2023-01-19T21:01:26.550Z,2.27
2023-01-19T21:03:53.812Z,2.73
2023-01-19T21:06:21.321Z,4.10
2023-01-19T21:08:51.120Z,2.83
2023-01-19T21:11:20.778Z,2.40
2023-01-19T21:13:48.690Z,2.67
2023-01-19T21:16:15.678Z,2.57
2023-01-19T21:18:42.457Z,2.60
2023-01-19T21:21:20.867Z,2.40
2023-01-19T21:24:00.062Z,2.93
2023-01-19T21:26:29.568Z,2.37
2023-01-19T21:29:00.621Z,2.57
2023-01-19T21:31:28.250Z,2.57
2023-01-19T21:33:55.721Z,3.10
2023-01-19T21:36:22.558Z,3.10
2023-01-19T21:38:51.302Z,2.70
2023-01-19T21:41:24.931Z,2.90
2023-01-19T21:43:51.658Z,2.70
2023-01-19T21:46:29.143Z,3.57
2023-01-19T21:49:06.283Z,5.40
2023-01-19T21:51:35.843Z,3.97
2023-01-19T21:54:05.475Z,7.57
2023-01-19T21:56:32.189Z,5.30
2023-01-19T21:59:02.211Z,5.00
2023-01-19T22:01:30.375Z,4.90
2023-01-19T22:03:57.988Z,3.80
2023-01-19T22:06:26.334Z,3.43
2023-01-19T22:08:54.209Z,3.80
2023-01-19T22:11:21.955Z,3.67
2023-01-19T22:13:48.799Z,3.37
2023-01-19T22:16:18.356Z,3.73
2023-01-19T22:18:50.121Z,3.37
2023-01-19T22:21:22.563Z,3.13
2023-01-19T22:23:51.115Z,4.00
2023-01-19T22:26:18.384Z,3.33
2023-01-19T22:28:45.830Z,3.27
2023-01-19T22:31:15.242Z,2.77
2023-01-19T22:33:53.773Z,3.43
2023-01-19T22:36:35.361Z,3.20
2023-01-19T22:39:11.914Z,3.03
2023-01-19T22:41:44.773Z,3.80
2023-01-19T22:44:16.492Z,3.37
2023-01-19T22:46:43.722Z,3.50
2023-01-19T22:49:13.500Z,2.80
2023-01-19T22:51:40.193Z,3.07
2023-01-19T22:54:07.556Z,3.03
2023-01-19T22:56:36.022Z,3.30
2023-01-19T22:59:03.804Z,3.17
2023-01-19T23:01:36.794Z,3.20
2023-01-19T23:04:05.405Z,3.27
2023-01-19T23:06:34.389Z,3.30
2023-01-19T23:09:03.751Z,3.70
2023-01-19T23:11:35.862Z,3.47
2023-01-19T23:14:03.692Z,3.27
2023-01-19T23:16:30.486Z,3.47
2023-01-19T23:18:58.520Z,3.23
2023-01-19T23:21:27.698Z,3.20
2023-01-19T23:24:00.046Z,3.17
2023-01-19T23:26:27.769Z,3.10
2023-01-19T23:29:06.588Z,2.90
2023-01-19T23:31:38.021Z,3.70
2023-01-19T23:34:06.941Z,2.97
2023-01-19T23:36:35.802Z,3.17
2023-01-19T23:39:09.967Z,3.30
2023-01-19T23:41:36.832Z,3.27
2023-01-19T23:44:04.207Z,3.30
2023-01-19T23:46:30.997Z,3.50
2023-01-19T23:48:57.686Z,3.37
2023-01-19T23:51:26.977Z,3.63
2023-01-19T23:53:54.202Z,3.30
2023-01-19T23:56:23.838Z,3.77
2023-01-19T23:58:56.543Z,3.90
